createdAt,value
2022-10-18T00:00:07.529Z,98.95
2022-10-18T00:02:34.608Z,98.86
2022-10-18T00:05:01.654Z,98.91
2022-10-18T00:07:28.521Z,98.85
2022-10-18T00:09:55.525Z,98.89
2022-10-18T00:12:22.512Z,98.84
2022-10-18T00:14:51.086Z,98.88
2022-10-18T00:17:18.417Z,99.05
2022-10-18T00:19:46.662Z,98.88
2022-10-18T00:22:13.612Z,99.09
2022-10-18T00:24:40.423Z,98.88
2022-10-18T00:27:07.618Z,99.07
2022-10-18T00:29:34.459Z,98.83
2022-10-18T00:32:01.250Z,98.92
2022-10-18T00:34:28.137Z,98.97
2022-10-18T00:36:55.321Z,99.11
2022-10-18T00:39:23.043Z,98.99
2022-10-18T00:41:50.424Z,99.09
2022-10-18T00:44:17.172Z,99.06
2022-10-18T00:46:49.486Z,98.94
2022-10-18T00:49:20.876Z,99.01
2022-10-18T00:52:05.017Z,98.85
2022-10-18T00:54:34.146Z,98.95
2022-10-18T00:57:01.852Z,99.06
2022-10-18T00:59:29.624Z,98.78
2022-10-18T01:01:56.815Z,98.94
2022-10-18T01:04:24.217Z,98.98
2022-10-18T01:09:50.148Z,99.09
2022-10-18T01:12:58.750Z,98.73
2022-10-18T01:15:37.436Z,99.06
2022-10-18T01:18:22.579Z,98.87
2022-10-18T01:21:10.952Z,98.84
2022-10-18T01:24:12.906Z,98.74
2022-10-18T01:27:04.360Z,98.96
2022-10-18T01:30:07.904Z,99.04
2022-10-18T01:32:44.429Z,98.90
2022-10-18T01:35:26.246Z,99.09
2022-10-18T01:37:59.369Z,99.20
2022-10-18T01:40:27.050Z,99.16
2022-10-18T01:42:54.151Z,99.17
2022-10-18T01:45:22.722Z,98.90
2022-10-18T01:47:51.045Z,99.12
2022-10-18T01:50:30.755Z,99.26
2022-10-18T01:52:57.900Z,99.30
2022-10-18T01:55:48.784Z,99.06
2022-10-18T01:58:54.041Z,99.12
2022-10-18T02:01:42.489Z,99.39
2022-10-18T02:04:37.697Z,99.20
2022-10-18T02:07:15.179Z,98.89
2022-10-18T02:10:06.811Z,99.15
2022-10-18T02:12:35.042Z,98.97
2022-10-18T02:15:04.387Z,99.15
2022-10-18T02:17:32.514Z,98.91
2022-10-18T02:20:02.684Z,98.88
2022-10-18T02:22:33.850Z,98.84
2022-10-18T02:25:05.578Z,98.72
2022-10-18T02:27:32.668Z,98.75
2022-10-18T02:29:59.654Z,98.75
2022-10-18T02:32:35.079Z,98.90
2022-10-18T02:35:34.286Z,98.91
2022-10-18T02:38:02.993Z,98.78
2022-10-18T02:40:30.316Z,98.62
2022-10-18T02:42:58.782Z,98.84
2022-10-18T02:45:26.728Z,98.79
2022-10-18T02:47:53.807Z,98.68
2022-10-18T02:50:20.585Z,98.20
2022-10-18T02:52:47.396Z,98.41
2022-10-18T02:55:14.171Z,98.42
2022-10-18T02:57:40.957Z,98.34
2022-10-18T03:00:08.536Z,98.26
2022-10-18T03:02:35.501Z,97.95
2022-10-18T03:05:02.400Z,97.82
2022-10-18T03:07:29.476Z,98.10
2022-10-18T03:09:56.470Z,97.94
2022-10-18T03:12:23.260Z,97.97
2022-10-18T03:14:50.036Z,97.86
2022-10-18T03:17:16.836Z,97.87
2022-10-18T03:19:43.621Z,97.82
2022-10-18T03:22:10.484Z,97.80
2022-10-18T03:24:37.266Z,97.90
2022-10-18T03:27:04.205Z,97.75
2022-10-18T03:29:31.002Z,97.83
2022-10-18T03:31:57.860Z,97.81
2022-10-18T03:34:24.709Z,98.09
2022-10-18T03:36:51.469Z,98.01
2022-10-18T03:39:18.291Z,97.92
2022-10-18T03:41:45.013Z,97.72
2022-10-18T03:44:11.836Z,97.82
2022-10-18T03:46:38.615Z,97.79
2022-10-18T03:49:05.422Z,97.57
2022-10-18T03:51:32.215Z,97.68
2022-10-18T03:53:59.020Z,97.60
2022-10-18T03:56:25.850Z,97.63
2022-10-18T03:58:52.652Z,97.58
2022-10-18T04:01:19.594Z,97.44
2022-10-18T04:03:46.499Z,97.56
2022-10-18T04:06:13.421Z,97.49
2022-10-18T04:08:40.275Z,97.30
2022-10-18T04:11:11.312Z,97.20
2022-10-18T04:13:38.783Z,97.20
2022-10-18T04:16:05.676Z,97.06
2022-10-18T04:18:32.467Z,97.18
2022-10-18T04:20:59.315Z,97.01
2022-10-18T04:23:26.160Z,97.08
2022-10-18T04:25:52.951Z,96.98
2022-10-18T04:28:19.865Z,97.00
2022-10-18T04:30:53.383Z,97.05
2022-10-18T04:33:20.683Z,97.13
2022-10-18T04:35:48.013Z,96.98
2022-10-18T04:38:14.990Z,96.83
2022-10-18T04:40:41.765Z,96.95
2022-10-18T04:43:08.605Z,96.71
2022-10-18T04:45:35.726Z,96.83
2022-10-18T04:48:03.388Z,96.63
2022-10-18T04:50:30.261Z,96.66
2022-10-18T04:52:57.032Z,96.74
2022-10-18T04:55:24.001Z,96.95
2022-10-18T04:57:50.759Z,96.95
2022-10-18T05:00:17.730Z,97.06
2022-10-18T05:02:44.530Z,97.01
2022-10-18T05:05:13.928Z,97.05
2022-10-18T05:07:41.272Z,96.90
2022-10-18T05:10:08.613Z,96.93
2022-10-18T05:12:35.523Z,96.91
2022-10-18T05:15:02.414Z,96.71
2022-10-18T05:17:29.248Z,96.85
2022-10-18T05:19:56.091Z,96.91
2022-10-18T05:22:22.894Z,96.83
2022-10-18T05:24:49.784Z,96.84
2022-10-18T05:27:16.573Z,96.75
2022-10-18T05:29:43.374Z,96.63
2022-10-18T05:32:10.210Z,96.63
2022-10-18T05:34:37.018Z,96.75
2022-10-18T05:37:03.860Z,96.82
2022-10-18T05:39:30.768Z,96.60
2022-10-18T05:41:58.310Z,96.89
2022-10-18T05:44:25.070Z,96.90
2022-10-18T05:46:51.938Z,97.16
2022-10-18T05:49:18.924Z,96.94
2022-10-18T05:51:45.618Z,96.84
2022-10-18T05:54:13.063Z,96.96
2022-10-18T05:56:40.599Z,97.15
2022-10-18T05:59:10.392Z,97.29
2022-10-18T06:01:38.569Z,97.17
2022-10-18T06:04:06.048Z,97.22
2022-10-18T06:06:33.781Z,97.05
2022-10-18T06:09:00.644Z,97.28
2022-10-18T06:11:27.458Z,97.20
2022-10-18T06:13:54.314Z,97.15
2022-10-18T06:16:23.049Z,97.08
2022-10-18T06:18:52.503Z,97.21
2022-10-18T06:21:19.872Z,97.07
2022-10-18T06:23:55.085Z,97.34
2022-10-18T06:26:22.399Z,97.34
2022-10-18T06:28:50.213Z,97.37
2022-10-18T06:31:17.415Z,97.49
2022-10-18T06:33:45.999Z,97.51
2022-10-18T06:36:18.716Z,97.40
2022-10-18T06:38:45.797Z,97.44
2022-10-18T06:41:12.956Z,97.66
2022-10-18T06:43:40.367Z,97.52
2022-10-18T06:46:08.786Z,97.45
2022-10-18T06:48:36.755Z,97.56
2022-10-18T06:51:06.768Z,97.65
2022-10-18T06:53:43.692Z,97.52
2022-10-18T06:56:16.316Z,97.79
2022-10-18T06:58:43.325Z,97.58
2022-10-18T07:01:12.866Z,97.60
2022-10-18T07:03:39.947Z,97.72
2022-10-18T07:06:09.041Z,97.73
2022-10-18T07:08:36.083Z,97.70
2022-10-18T07:11:02.885Z,97.80
2022-10-18T07:13:32.765Z,97.68
2022-10-18T07:16:12.825Z,97.85
2022-10-18T07:18:44.773Z,97.59
2022-10-18T07:21:15.585Z,97.71
2022-10-18T07:23:44.296Z,97.83
2022-10-18T07:26:33.301Z,97.78
2022-10-18T07:29:11.933Z,97.83
2022-10-18T07:31:39.381Z,98.04
2022-10-18T07:34:07.624Z,98.02
2022-10-18T07:36:34.925Z,98.08
2022-10-18T07:39:01.819Z,97.67
2022-10-18T07:41:29.309Z,97.85
2022-10-18T07:43:56.109Z,97.92
2022-10-18T07:46:23.275Z,97.92
2022-10-18T07:48:51.441Z,97.85
2022-10-18T07:51:22.272Z,97.87
2022-10-18T07:53:49.171Z,97.95
2022-10-18T07:56:21.026Z,97.92
2022-10-18T07:58:53.721Z,97.85
2022-10-18T08:01:25.306Z,97.76
2022-10-18T08:03:53.092Z,97.82
2022-10-18T08:06:21.774Z,97.76
2022-10-18T08:08:48.848Z,97.53
2022-10-18T08:11:19.010Z,97.23
2022-10-18T08:13:46.258Z,97.70
2022-10-18T08:16:16.039Z,97.43
2022-10-18T08:18:43.340Z,97.60
2022-10-18T08:21:12.350Z,97.50
2022-10-18T08:23:39.868Z,97.51
2022-10-18T08:26:09.808Z,97.56
2022-10-18T08:28:37.060Z,97.53
2022-10-18T08:31:09.192Z,97.79
2022-10-18T08:33:36.415Z,97.73
2022-10-18T08:36:06.116Z,97.69
2022-10-18T08:38:35.283Z,97.69
2022-10-18T08:41:43.282Z,97.75
2022-10-18T08:44:23.536Z,97.80
2022-10-18T08:46:59.162Z,97.77
2022-10-18T08:49:32.472Z,97.81
2022-10-18T08:51:59.531Z,97.74
2022-10-18T08:54:56.812Z,97.81
2022-10-18T08:57:23.715Z,97.79
2022-10-18T08:59:50.827Z,97.78
2022-10-18T09:02:49.916Z,97.46
2022-10-18T09:05:16.840Z,97.48
2022-10-18T09:08:09.833Z,97.38
2022-10-18T09:10:45.998Z,97.57
2022-10-18T09:13:18.928Z,97.30
2022-10-18T09:16:17.885Z,97.15
2022-10-18T09:18:57.710Z,97.24
2022-10-18T09:21:41.092Z,97.11
2022-10-18T09:24:13.321Z,97.12
2022-10-18T09:26:46.457Z,97.15
2022-10-18T09:29:22.193Z,97.20
2022-10-18T09:32:14.072Z,97.33
2022-10-18T09:34:54.080Z,97.55
2022-10-18T09:37:24.287Z,97.24
2022-10-18T09:39:55.560Z,97.22
2022-10-18T09:42:35.177Z,97.54
2022-10-18T09:45:21.678Z,97.57
2022-10-18T09:48:11.801Z,97.47
2022-10-18T09:50:44.900Z,97.11
2022-10-18T09:53:26.532Z,97.12
2022-10-18T09:56:15.444Z,96.82
2022-10-18T09:58:45.796Z,96.90
2022-10-18T10:01:23.984Z,96.75
2022-10-18T10:03:51.871Z,96.72
2022-10-18T10:06:31.749Z,96.69
2022-10-18T10:09:01.946Z,96.57
2022-10-18T10:11:50.684Z,96.73
2022-10-18T10:14:26.030Z,96.67
2022-10-18T10:16:58.745Z,96.32
2022-10-18T10:19:30.658Z,95.40
2022-10-18T10:22:05.721Z,93.07
2022-10-18T10:24:53.711Z,90.82
2022-10-18T10:27:44.352Z,88.77
2022-10-18T10:30:27.311Z,89.04
2022-10-18T10:32:56.009Z,88.37
2022-10-18T10:35:53.519Z,87.23
2022-10-18T10:38:26.728Z,87.50
2022-10-18T10:40:54.252Z,86.51
2022-10-18T10:43:39.688Z,85.58
2022-10-18T10:46:10.587Z,85.36
2022-10-18T10:48:46.770Z,86.11
2022-10-18T10:51:16.327Z,84.35
2022-10-18T10:53:50.996Z,83.08
2022-10-18T10:56:29.977Z,83.89
2022-10-18T10:59:02.185Z,81.97
2022-10-18T11:01:32.379Z,82.95
2022-10-18T11:04:02.498Z,82.12
2022-10-18T11:06:49.273Z,82.08
2022-10-18T11:09:32.004Z,81.61
2022-10-18T11:12:11.319Z,80.03
2022-10-18T11:14:51.099Z,80.50
2022-10-18T11:17:40.112Z,80.36
2022-10-18T11:20:38.683Z,76.06
2022-10-18T11:23:13.292Z,76.21
2022-10-18T11:26:03.272Z,75.91
2022-10-18T11:28:57.410Z,76.60
2022-10-18T11:31:31.764Z,75.29
2022-10-18T11:34:17.625Z,75.02
2022-10-18T11:37:29.978Z,75.63
2022-10-18T11:40:15.813Z,75.63
2022-10-18T11:43:30.079Z,75.28
2022-10-18T11:46:28.963Z,72.87
2022-10-18T11:49:18.736Z,73.76
2022-10-18T11:52:11.626Z,72.72
2022-10-18T11:54:56.549Z,70.36
2022-10-18T11:57:59.840Z,72.41
2022-10-18T12:00:57.336Z,72.32
2022-10-18T12:03:27.177Z,72.04
2022-10-18T12:05:58.534Z,69.81
2022-10-18T12:08:37.035Z,71.18
2022-10-18T12:11:16.774Z,69.65
2022-10-18T12:13:57.158Z,70.10
2022-10-18T12:16:50.558Z,68.99
2022-10-18T12:19:26.685Z,68.52
2022-10-18T12:21:58.294Z,69.44
2022-10-18T12:24:30.520Z,70.43
2022-10-18T12:27:00.815Z,68.50
2022-10-18T12:29:30.902Z,69.15
2022-10-18T12:32:02.806Z,71.20
2022-10-18T12:34:43.268Z,68.12
2022-10-18T12:37:25.045Z,67.69
2022-10-18T12:40:10.624Z,68.01
2022-10-18T12:42:46.361Z,67.45
2022-10-18T12:45:13.882Z,68.16
2022-10-18T12:47:41.295Z,66.62
2022-10-18T12:50:28.617Z,67.40
2022-10-18T12:53:08.477Z,66.04
2022-10-18T12:58:30.506Z,65.49
2022-10-18T13:01:02.607Z,64.38
2022-10-18T13:03:42.294Z,64.83
2022-10-18T13:06:09.286Z,65.98
2022-10-18T13:08:42.237Z,64.10
2022-10-18T13:11:12.011Z,63.97
2022-10-18T13:14:08.063Z,64.44
2022-10-18T13:16:59.093Z,64.98
2022-10-18T13:20:02.946Z,64.23
2022-10-18T13:22:49.087Z,61.16
2022-10-18T13:25:27.849Z,64.07
2022-10-18T13:27:54.878Z,63.67
2022-10-18T13:30:21.830Z,64.03
2022-10-18T13:32:54.647Z,62.44
2022-10-18T13:35:40.021Z,62.39
2022-10-18T13:38:24.829Z,62.44
2022-10-18T13:41:13.338Z,63.01
2022-10-18T13:43:57.195Z,64.72
2022-10-18T13:46:33.121Z,63.66
2022-10-18T13:49:20.710Z,64.10
2022-10-18T13:52:05.568Z,64.20
2022-10-18T13:54:50.557Z,65.61
2022-10-18T13:57:39.207Z,64.56
2022-10-18T14:00:30.300Z,64.75
2022-10-18T14:03:44.157Z,64.57
2022-10-18T14:06:22.923Z,63.68
2022-10-18T14:09:25.530Z,63.46
2022-10-18T14:12:26.177Z,65.23
2022-10-18T14:15:14.658Z,62.44
2022-10-18T14:18:16.506Z,61.81
2022-10-18T14:21:01.386Z,60.42
2022-10-18T14:23:40.979Z,61.09
2022-10-18T14:26:19.659Z,63.15
2022-10-18T14:29:01.929Z,64.20
2022-10-18T14:31:30.069Z,65.17
2022-10-18T14:33:59.021Z,65.48
2022-10-18T14:36:29.565Z,65.84
2022-10-18T14:38:59.256Z,65.51
2022-10-18T14:41:28.783Z,65.23
2022-10-18T14:44:14.363Z,66.65
2022-10-18T14:46:47.051Z,67.59
2022-10-18T14:49:15.288Z,67.03
2022-10-18T14:51:44.584Z,66.73
2022-10-18T14:54:30.653Z,66.95
2022-10-18T14:56:59.894Z,67.64
2022-10-18T14:59:33.059Z,68.58
2022-10-18T15:02:05.254Z,68.10
2022-10-18T15:04:35.486Z,67.93
2022-10-18T15:07:05.592Z,68.46
2022-10-18T15:09:35.021Z,68.55
2022-10-18T15:12:07.508Z,67.82
2022-10-18T15:14:35.783Z,68.47
2022-10-18T15:17:14.376Z,69.01
2022-10-18T15:20:00.519Z,69.59
2022-10-18T15:22:32.883Z,69.38
2022-10-18T15:25:06.078Z,70.46
2022-10-18T15:27:37.256Z,71.00
2022-10-18T15:30:14.197Z,70.50
2022-10-18T15:32:49.392Z,71.34
2022-10-18T15:35:24.984Z,71.46
2022-10-18T15:37:53.126Z,71.22
2022-10-18T15:40:33.599Z,71.66
2022-10-18T15:43:04.104Z,71.84
2022-10-18T15:45:35.425Z,72.77
2022-10-18T15:48:17.362Z,73.22
2022-10-18T15:51:04.523Z,73.76
2022-10-18T15:53:33.093Z,74.86
2022-10-18T15:56:01.121Z,75.38
2022-10-18T15:58:40.634Z,75.13
2022-10-18T16:01:18.154Z,75.14
2022-10-18T16:03:46.788Z,75.57
2022-10-18T16:06:18.294Z,75.52
2022-10-18T16:08:51.134Z,75.61
2022-10-18T16:11:24.165Z,75.97
2022-10-18T16:13:55.140Z,75.89
2022-10-18T16:16:27.535Z,76.27
2022-10-18T16:18:55.271Z,76.73
2022-10-18T16:21:27.840Z,77.00
2022-10-18T16:23:54.821Z,77.25
2022-10-18T16:26:23.400Z,77.40
2022-10-18T16:28:52.246Z,77.69
2022-10-18T16:31:22.133Z,78.00
2022-10-18T16:33:51.343Z,78.25
2022-10-18T16:36:21.457Z,78.58
2022-10-18T16:38:49.134Z,78.82
2022-10-18T16:41:16.939Z,78.96
2022-10-18T16:43:45.963Z,79.21
2022-10-18T16:46:34.577Z,79.49
2022-10-18T16:49:02.622Z,79.56
2022-10-18T16:51:29.871Z,79.89
2022-10-18T16:53:57.502Z,80.17
2022-10-18T16:56:30.855Z,80.25
2022-10-18T16:58:58.846Z,80.28
2022-10-18T17:01:26.726Z,80.43
2022-10-18T17:03:53.961Z,80.80
2022-10-18T17:06:27.269Z,80.94
2022-10-18T17:08:55.654Z,81.14
2022-10-18T17:11:25.593Z,81.22
2022-10-18T17:13:52.529Z,81.59
2022-10-18T17:16:32.292Z,81.82
2022-10-18T17:19:01.717Z,82.05
2022-10-18T17:21:29.964Z,82.06
2022-10-18T17:24:00.715Z,82.02
2022-10-18T17:26:29.667Z,82.03
2022-10-18T17:29:03.442Z,82.05
2022-10-18T17:31:32.207Z,82.29
2022-10-18T17:34:02.060Z,82.94
2022-10-18T17:36:31.051Z,83.10
2022-10-18T17:38:58.498Z,82.98
2022-10-18T17:41:25.653Z,83.14
2022-10-18T17:43:52.715Z,83.20
2022-10-18T17:46:19.810Z,83.37
2022-10-18T17:48:47.150Z,83.46
2022-10-18T17:51:16.957Z,83.46
2022-10-18T17:53:44.401Z,83.77
2022-10-18T17:56:12.218Z,84.07
2022-10-18T17:58:39.744Z,83.93
2022-10-18T18:01:15.667Z,83.88
2022-10-18T18:03:42.930Z,83.86
2022-10-18T18:06:21.552Z,84.11
2022-10-18T18:08:49.238Z,84.46
2022-10-18T18:11:17.401Z,84.28
2022-10-18T18:13:44.452Z,84.38
2022-10-18T18:16:19.241Z,84.46
2022-10-18T18:18:54.360Z,84.54
2022-10-18T18:21:21.844Z,84.56
2022-10-18T18:23:49.718Z,84.74
2022-10-18T18:26:18.629Z,84.75
2022-10-18T18:28:45.983Z,84.86
2022-10-18T18:31:19.109Z,84.86
2022-10-18T18:33:46.573Z,84.70
2022-10-18T18:36:14.060Z,84.90
2022-10-18T18:38:44.655Z,84.71
2022-10-18T18:41:16.870Z,85.15
2022-10-18T18:43:47.075Z,85.27
2022-10-18T18:46:14.120Z,85.52
2022-10-18T18:48:41.493Z,85.57
2022-10-18T18:51:14.307Z,85.83
2022-10-18T18:53:43.293Z,85.92
2022-10-18T18:56:15.081Z,85.95
2022-10-18T18:58:44.376Z,85.95
2022-10-18T19:01:15.411Z,86.00
2022-10-18T19:03:43.329Z,85.96
2022-10-18T19:06:14.893Z,86.33
2022-10-18T19:08:44.945Z,86.29
2022-10-18T19:11:22.765Z,86.55
2022-10-18T19:13:50.558Z,86.59
2022-10-18T19:16:35.534Z,86.73
2022-10-18T19:19:26.502Z,86.88
2022-10-18T19:21:58.776Z,86.85
2022-10-18T19:24:28.108Z,87.30
2022-10-18T19:27:13.104Z,87.08
2022-10-18T19:29:41.017Z,87.09
2022-10-18T19:32:12.370Z,87.00
2022-10-18T19:34:39.711Z,87.41
2022-10-18T19:37:06.796Z,87.24
2022-10-18T19:39:35.501Z,87.23
2022-10-18T19:42:05.952Z,87.50
2022-10-18T19:44:36.172Z,87.30
2022-10-18T19:47:06.475Z,87.46
2022-10-18T19:49:33.413Z,87.33
2022-10-18T19:52:00.363Z,87.36
2022-10-18T19:54:27.395Z,87.37
2022-10-18T19:56:54.498Z,87.40
2022-10-18T19:59:22.769Z,87.51
2022-10-18T20:01:51.939Z,87.62
2022-10-18T20:04:19.014Z,87.36
2022-10-18T20:06:46.027Z,87.51
2022-10-18T20:09:17.657Z,87.52
2022-10-18T20:11:47.757Z,87.60
2022-10-18T20:14:14.676Z,87.73
2022-10-18T20:16:41.627Z,87.72
2022-10-18T20:19:08.734Z,87.83
2022-10-18T20:21:36.511Z,87.81
2022-10-18T20:24:06.740Z,87.93
2022-10-18T20:26:34.718Z,87.89
2022-10-18T20:29:01.750Z,87.90
2022-10-18T20:31:39.164Z,87.84
2022-10-18T20:34:11.848Z,87.75
2022-10-18T20:36:39.433Z,87.77
2022-10-18T20:39:07.179Z,88.13
2022-10-18T20:41:39.913Z,88.00
2022-10-18T20:44:11.890Z,88.08
2022-10-18T20:46:40.548Z,88.18
2022-10-18T20:49:08.540Z,87.78
2022-10-18T20:51:35.957Z,88.29
2022-10-18T20:54:06.730Z,87.80
2022-10-18T20:56:35.562Z,88.27
2022-10-18T20:59:03.262Z,88.19
2022-10-18T21:01:32.435Z,87.98
2022-10-18T21:04:02.349Z,88.20
2022-10-18T21:06:31.884Z,88.25
2022-10-18T21:09:05.142Z,88.10
2022-10-18T21:11:37.430Z,88.24
2022-10-18T21:14:05.765Z,88.17
2022-10-18T21:16:35.071Z,88.22
2022-10-18T21:19:07.453Z,88.42
2022-10-18T21:21:34.876Z,88.19
2022-10-18T21:24:05.377Z,88.21
2022-10-18T21:26:35.154Z,88.18
2022-10-18T21:29:02.893Z,88.20
2022-10-18T21:31:32.445Z,88.12
2022-10-18T21:34:00.858Z,88.39
2022-10-18T21:36:31.491Z,88.38
2022-10-18T21:38:58.782Z,88.39
2022-10-18T21:41:26.204Z,88.28
2022-10-18T21:43:54.609Z,88.39
2022-10-18T21:46:24.408Z,88.61
2022-10-18T21:48:53.074Z,88.62
2022-10-18T21:51:21.474Z,88.38
2022-10-18T21:53:50.960Z,88.51
2022-10-18T21:56:23.481Z,88.53
2022-10-18T21:58:50.736Z,88.68
2022-10-18T22:01:24.155Z,88.70
2022-10-18T22:03:53.505Z,88.89
2022-10-18T22:06:21.120Z,88.81
2022-10-18T22:08:57.130Z,88.84
2022-10-18T22:11:27.175Z,88.96
2022-10-18T22:13:54.751Z,89.27
2022-10-18T22:16:22.229Z,89.15
2022-10-18T22:18:50.487Z,89.46
2022-10-18T22:21:19.493Z,89.29
2022-10-18T22:23:48.870Z,89.40
2022-10-18T22:26:20.015Z,89.12
2022-10-18T22:28:47.412Z,89.52
2022-10-18T22:31:26.379Z,89.39
2022-10-18T22:33:55.160Z,89.05
2022-10-18T22:36:22.493Z,89.25
2022-10-18T22:38:49.481Z,89.31
2022-10-18T22:41:16.688Z,89.87
2022-10-18T22:43:45.981Z,90.12
2022-10-18T22:46:14.265Z,89.87
2022-10-18T22:48:41.730Z,90.03
2022-10-18T22:51:08.853Z,90.13
2022-10-18T22:53:37.165Z,90.05
2022-10-18T22:56:05.392Z,90.17
2022-10-18T22:58:32.580Z,90.03
2022-10-18T23:01:04.809Z,89.91
2022-10-18T23:03:31.574Z,89.76
2022-10-18T23:05:58.842Z,89.88
2022-10-18T23:08:26.316Z,89.93
2022-10-18T23:10:58.562Z,90.03
2022-10-18T23:13:26.881Z,90.31
2022-10-18T23:15:53.954Z,89.77
2022-10-18T23:18:20.933Z,89.92
2022-10-18T23:20:47.769Z,89.98
2022-10-18T23:23:14.528Z,89.94
2022-10-18T23:25:41.326Z,89.70
2022-10-18T23:28:08.117Z,89.44
2022-10-18T23:30:38.132Z,89.48
2022-10-18T23:33:05.072Z,89.62
2022-10-18T23:35:31.911Z,89.52
2022-10-18T23:37:58.715Z,89.26
2022-10-18T23:40:25.585Z,89.36
2022-10-18T23:42:52.453Z,89.33
2022-10-18T23:45:19.300Z,89.36
2022-10-18T23:47:46.171Z,89.63
2022-10-18T23:50:12.899Z,89.50
2022-10-18T23:52:39.737Z,89.37
2022-10-18T23:55:07.279Z,89.80
2022-10-18T23:57:34.447Z,89.57
